createdAt,value
2022-10-06T00:02:59.907Z,9.02
2022-10-06T00:08:03.269Z,7.15
2022-10-06T00:13:05.732Z,9.87
2022-10-06T00:18:08.268Z,6.78
2022-10-06T00:23:11.202Z,8.82
2022-10-06T00:28:14.252Z,10.32
2022-10-06T00:33:17.858Z,10.05
2022-10-06T00:38:20.600Z,15.40
2022-10-06T00:43:51.217Z,8.98
2022-10-06T00:49:16.694Z,8.48
2022-10-06T00:54:19.367Z,10.87
2022-10-06T00:59:21.821Z,12.50
2022-10-06T01:04:24.748Z,10.23
2022-10-06T01:09:27.772Z,7.35
2022-10-06T01:14:30.390Z,8.13
2022-10-06T01:19:55.227Z,12.47
2022-10-06T01:24:58.379Z,8.85
2022-10-06T01:30:01.194Z,6.63
2022-10-06T01:35:04.320Z,7.18
2022-10-06T01:40:07.539Z,10.57
2022-10-06T01:45:10.489Z,7.83
2022-10-06T01:50:12.933Z,5.82
2022-10-06T01:55:15.790Z,9.50
2022-10-06T02:00:19.366Z,6.50
2022-10-06T02:05:21.900Z,6.60
2022-10-06T02:10:24.691Z,7.97
2022-10-06T02:15:27.372Z,8.98
2022-10-06T02:20:29.780Z,7.07
2022-10-06T02:25:32.239Z,6.13
2022-10-06T02:30:34.676Z,16.00
2022-10-06T02:35:37.098Z,10.10
2022-10-06T02:40:39.714Z,9.10
2022-10-06T02:45:43.292Z,10.43
2022-10-06T02:50:45.838Z,8.40
2022-10-06T02:55:48.290Z,6.85
2022-10-06T03:00:50.704Z,6.53
2022-10-06T03:06:06.806Z,8.73
2022-10-06T03:11:10.116Z,14.13
2022-10-06T03:16:23.610Z,10.05
2022-10-06T03:21:31.416Z,8.32
2022-10-06T03:26:37.741Z,6.78
2022-10-06T03:31:40.555Z,5.85
2022-10-06T03:36:44.169Z,3.23
2022-10-06T03:41:46.835Z,6.70
2022-10-06T03:46:49.592Z,5.85
2022-10-06T03:51:53.686Z,1.77
2022-10-06T03:56:56.151Z,6.13
2022-10-06T04:01:58.618Z,4.10
2022-10-06T04:07:01.134Z,8.38
2022-10-06T04:12:03.681Z,8.02
2022-10-06T04:17:06.180Z,6.05
2022-10-06T04:22:08.709Z,4.45
2022-10-06T04:27:29.211Z,6.47
2022-10-06T04:32:32.364Z,5.40
2022-10-06T04:37:34.798Z,6.68
2022-10-06T04:42:37.762Z,9.00
2022-10-06T04:47:40.271Z,3.03
2022-10-06T04:52:42.688Z,3.23
2022-10-06T04:57:45.218Z,4.75
2022-10-06T05:02:47.667Z,4.93
2022-10-06T05:07:50.157Z,8.77
2022-10-06T05:12:54.217Z,6.25
2022-10-06T05:17:56.753Z,6.73
2022-10-06T05:22:59.228Z,4.85
2022-10-06T05:28:01.692Z,6.13
2022-10-06T05:33:04.232Z,10.55
2022-10-06T05:38:09.779Z,5.97
2022-10-06T05:43:12.264Z,9.10
2022-10-06T05:48:14.748Z,8.00
2022-10-06T05:53:17.273Z,10.23
2022-10-06T05:58:19.993Z,12.97
2022-10-06T06:03:22.440Z,11.60
2022-10-06T06:08:24.903Z,12.03
2022-10-06T06:13:27.336Z,9.80
2022-10-06T06:18:37.147Z,17.38
2022-10-06T06:23:46.456Z,8.33
2022-10-06T06:28:51.206Z,8.20
2022-10-06T06:33:56.475Z,9.10
2022-10-06T06:38:59.293Z,11.88
2022-10-06T06:44:01.975Z,8.38
2022-10-06T06:49:05.301Z,9.40
2022-10-06T06:54:10.267Z,7.70
2022-10-06T06:59:13.628Z,11.20
2022-10-06T07:04:17.255Z,9.70
2022-10-06T07:09:20.941Z,9.23
2022-10-06T07:14:24.481Z,6.27
2022-10-06T07:19:45.307Z,8.30
2022-10-06T07:25:06.642Z,10.37
2022-10-06T07:30:11.583Z,9.10
2022-10-06T07:35:15.567Z,7.10
2022-10-06T07:40:18.739Z,6.37
2022-10-06T07:45:38.534Z,5.50
2022-10-06T07:50:42.594Z,8.07
2022-10-06T07:55:49.751Z,10.73
2022-10-06T08:00:53.188Z,6.10
2022-10-06T08:06:01.121Z,11.13
2022-10-06T08:11:04.657Z,10.57
2022-10-06T08:16:12.368Z,12.00
2022-10-06T08:21:21.962Z,8.73
2022-10-06T08:26:26.880Z,5.97
2022-10-06T08:31:30.527Z,6.33
2022-10-06T08:36:33.026Z,8.48
2022-10-06T08:41:48.716Z,7.47
2022-10-06T08:46:56.944Z,9.80
2022-10-06T08:52:20.620Z,7.00
2022-10-06T08:58:07.917Z,8.30
2022-10-06T09:03:24.174Z,8.37
2022-10-06T09:08:32.602Z,5.65
2022-10-06T09:13:56.462Z,6.60
2022-10-06T09:19:15.769Z,6.90
2022-10-06T09:24:30.151Z,6.55
2022-10-06T09:29:32.598Z,6.70
2022-10-06T09:34:42.957Z,5.18
2022-10-06T09:39:49.494Z,6.80
2022-10-06T09:44:53.167Z,5.27
2022-10-06T09:50:15.905Z,5.78
2022-10-06T09:55:20.102Z,6.57
2022-10-06T10:00:46.789Z,5.23
2022-10-06T10:05:57.052Z,4.22
2022-10-06T10:11:28.567Z,10.23
2022-10-06T10:16:35.899Z,4.63
2022-10-06T10:21:38.709Z,3.90
2022-10-06T10:26:54.556Z,4.80
2022-10-06T10:32:08.391Z,4.47
2022-10-06T10:37:21.983Z,5.25
2022-10-06T10:42:24.489Z,6.00
2022-10-06T10:47:30.848Z,6.83
2022-10-06T10:52:38.191Z,5.10
2022-10-06T10:57:42.084Z,4.27
2022-10-06T11:02:44.763Z,4.17
2022-10-06T11:08:04.944Z,4.10
2022-10-06T11:13:27.405Z,4.00
2022-10-06T11:18:45.273Z,5.70
2022-10-06T11:24:13.169Z,5.95
2022-10-06T11:29:28.218Z,6.33
2022-10-06T11:34:30.745Z,7.00
2022-10-06T11:39:54.468Z,10.70
2022-10-06T11:45:16.062Z,13.70
2022-10-06T11:50:49.240Z,4.87
2022-10-06T11:56:17.625Z,4.82
2022-10-06T12:01:32.442Z,4.55
2022-10-06T12:06:44.556Z,6.03
2022-10-06T12:11:47.349Z,7.10
2022-10-06T12:17:14.077Z,7.15
2022-10-06T12:22:47.434Z,3.00
2022-10-06T12:28:16.327Z,4.10
2022-10-06T12:33:36.240Z,5.60
2022-10-06T12:38:44.212Z,3.67
2022-10-06T12:43:54.743Z,3.37
2022-10-06T12:49:09.220Z,3.40
2022-10-06T12:54:21.591Z,4.22
2022-10-06T12:59:26.642Z,4.70
2022-10-06T13:04:52.062Z,4.38
2022-10-06T13:10:14.610Z,2.85
2022-10-06T13:15:17.117Z,5.53
2022-10-06T13:20:22.867Z,5.95
2022-10-06T13:25:26.006Z,14.45
2022-10-06T13:30:29.046Z,5.13
2022-10-06T13:35:32.347Z,6.43
2022-10-06T13:40:50.412Z,5.15
2022-10-06T13:45:54.060Z,3.87
2022-10-06T13:50:56.590Z,5.73
2022-10-06T13:56:01.142Z,4.43
2022-10-06T14:01:05.636Z,4.15
2022-10-06T14:06:26.388Z,4.83
2022-10-06T14:11:30.137Z,4.30
2022-10-06T14:16:32.796Z,6.32
2022-10-06T14:21:41.977Z,5.93
2022-10-06T14:26:46.535Z,3.17
2022-10-06T14:31:49.530Z,6.55
2022-10-06T14:36:52.536Z,5.47
2022-10-06T14:41:57.153Z,6.43
2022-10-06T14:46:59.617Z,4.32
2022-10-06T14:52:02.327Z,4.57
2022-10-06T14:57:05.180Z,4.33
2022-10-06T15:02:08.780Z,3.45
2022-10-06T15:07:39.090Z,5.43
2022-10-06T15:12:41.576Z,5.90
2022-10-06T15:17:44.059Z,5.63
2022-10-06T15:22:48.053Z,5.83
2022-10-06T15:28:08.978Z,5.03
2022-10-06T15:33:11.457Z,5.22
2022-10-06T15:38:14.141Z,8.47
2022-10-06T15:43:39.271Z,6.20
2022-10-06T15:48:43.189Z,8.25
2022-10-06T15:53:46.146Z,6.30
2022-10-06T15:58:48.848Z,6.37
2022-10-06T16:04:00.906Z,5.80
2022-10-06T16:09:03.544Z,6.50
2022-10-06T16:14:07.333Z,6.97
2022-10-06T16:19:12.550Z,7.53
2022-10-06T16:24:18.127Z,7.00
2022-10-06T16:29:21.581Z,8.82
2022-10-06T16:34:25.480Z,9.43
2022-10-06T16:39:28.079Z,11.10
2022-10-06T16:44:34.485Z,14.50
2022-10-06T16:49:36.963Z,16.60
2022-10-06T16:54:39.424Z,21.08
2022-10-06T16:59:46.495Z,18.75
2022-10-06T17:04:49.448Z,20.13
2022-10-06T17:10:18.506Z,22.58
2022-10-06T17:15:14.366Z,22.63
2022-10-06T17:20:16.943Z,20.70
2022-10-06T17:25:19.407Z,26.88
2022-10-06T17:30:21.834Z,19.50
2022-10-06T17:35:24.312Z,37.30
2022-10-06T17:40:27.087Z,33.85
2022-10-06T17:45:29.537Z,18.10
2022-10-06T17:50:32.404Z,13.00
2022-10-06T17:55:36.838Z,20.33
2022-10-06T18:00:39.283Z,18.70
2022-10-06T18:05:41.761Z,17.77
2022-10-06T18:11:06.745Z,20.77
2022-10-06T18:16:19.136Z,20.17
2022-10-06T18:21:24.071Z,14.55
2022-10-06T18:26:26.535Z,14.53
2022-10-06T18:31:29.667Z,16.83
2022-10-06T18:36:32.308Z,17.50
2022-10-06T18:41:36.710Z,18.83
2022-10-06T18:46:57.587Z,12.93
2022-10-06T18:52:01.714Z,21.67
2022-10-06T18:57:04.198Z,15.80
2022-10-06T19:02:07.051Z,12.43
2022-10-06T19:07:09.822Z,10.93
2022-10-06T19:12:12.287Z,10.40
2022-10-06T19:17:15.588Z,12.47
2022-10-06T19:22:19.729Z,13.90
2022-10-06T19:27:26.274Z,15.47
2022-10-06T19:32:33.895Z,12.27
2022-10-06T19:37:36.371Z,13.77
2022-10-06T19:42:48.116Z,13.70
2022-10-06T19:47:51.438Z,14.30
2022-10-06T19:52:54.014Z,12.63
2022-10-06T19:57:56.696Z,12.07
2022-10-06T20:02:59.252Z,11.30
2022-10-06T20:08:01.957Z,15.50
2022-10-06T20:13:05.976Z,15.18
2022-10-06T20:18:08.485Z,13.63
2022-10-06T20:23:10.923Z,10.32
2022-10-06T20:28:13.387Z,11.73
2022-10-06T20:33:16.712Z,18.87
2022-10-06T20:38:39.135Z,14.95
2022-10-06T20:43:43.212Z,13.93
2022-10-06T20:48:45.637Z,13.63
2022-10-06T20:53:48.144Z,11.40
2022-10-06T20:58:50.587Z,12.33
2022-10-06T21:03:54.914Z,11.93
2022-10-06T21:08:58.626Z,12.17
2022-10-06T21:14:01.975Z,14.95
2022-10-06T21:19:08.117Z,12.20
2022-10-06T21:24:10.850Z,15.13
2022-10-06T21:29:15.647Z,18.38
2022-10-06T21:34:18.429Z,19.93
2022-10-06T21:39:20.960Z,17.80
2022-10-06T21:44:23.484Z,19.70
2022-10-06T21:49:28.238Z,16.23
2022-10-06T21:54:30.859Z,23.58
2022-10-06T21:59:33.258Z,23.67
2022-10-06T22:04:35.692Z,21.55
2022-10-06T22:09:38.098Z,20.65
2022-10-06T22:14:40.547Z,22.83
2022-10-06T22:19:43.027Z,24.92
2022-10-06T22:24:52.234Z,29.50
2022-10-06T22:29:54.639Z,22.38
2022-10-06T22:34:57.491Z,19.77
2022-10-06T22:40:04.129Z,18.33
2022-10-06T22:45:10.951Z,35.72
2022-10-06T22:55:43.462Z,18.45
2022-10-06T23:00:46.494Z,9.70
2022-10-06T23:06:00.592Z,14.70
2022-10-06T23:11:07.110Z,15.85
2022-10-06T23:16:11.539Z,12.87
2022-10-06T23:21:21.682Z,12.32
2022-10-06T23:26:27.975Z,10.98
2022-10-06T23:31:30.508Z,13.17
2022-10-06T23:36:32.986Z,12.00
2022-10-06T23:41:35.536Z,13.97
2022-10-06T23:46:37.986Z,13.27
2022-10-06T23:51:40.442Z,10.30
2022-10-06T23:56:42.892Z,12.53
